OSU weather

The Ohio State University Airport - Don Scott Field
Columbus, Ohio, United States

Public forecast

Using degrees Fahrenheit for public forecast. Weather courtesy of forecast.io.

METAR (pilot weather report)

Retrieved 2019/03/26 21:53 UTC (21 minutes ago):

KOSU 262153Z 36009KT 10SM CLR 08/M08 A3035 RMK AO2 SLP283 T00831083

TAF (pilot weather forecast)

Closest forecast is John Glenn Columbus International Airport, 9.7 nm (17.9 km) ESE. Retrieved 2019/03/26 18:36 UTC (4 hours ago):

TAF KCMH 261733Z 2618/2718 06009KT P6SM SKC FM270200 03005KT P6SM SKC FM270700 00000KT P6SM SCT250 FM271500 17004KT P6SM SKC FM271700 19007KT P6SM SKC